Charlotte County, FL

8:31 AM EDT on October 20, 2014 (GMT -0400)
Charlotte County | Change Station
CLOSE
Current Station
Airport
Location: Punta Gorda,
Elevation: 26 ft
Nearby Weather Stations

Elev 26 ft 26.92 °N, 81.99 °W | Updated 38 minutes ago

Clear
Clear
65 °F
Feels Like 65 °F
N
4
Wind Variable Wind from NE

Today
High -- | Low -- °F
--% Chance of Precip.
Yesterday
High -- | Low -- °F
Precip. -- in
7:30 AM 6:54 PM
Waning Crescent, 11% visible
Pressure 30.04 in
Visibility 10.0 miles
Clouds Few 4000 ft
Dew Point 64 °F
Humidity 97%
Rainfall 0.00 in
Snow Depth Not available.
UV 0 out of 12
Pollen 6.00 out of 12
Air Quality Not available.
Flu Activity Local Activity
METAR KPGD 201153Z 05003KT 10SM FEW040 18/18 A3004 RMK AO2 SLP173 T01830178 10194 20178 51009

More Conditions Fewer Conditions

Pressure 30.04 in
Visibility 10.0 miles
Clouds Few 4000 ft
Dew Point 64 °F
Humidity 97%
Rainfall 0.00 in
Snow Depth Not available.
UV 0 out of 12
Pollen 6.00 out of 12
Air Quality Not available.
Flu Activity Local Activity
METAR KPGD 201153Z 05003KT 10SM FEW040 18/18 A3004 RMK AO2 SLP173 T01830178 10194 20178 51009

More Conditions Fewer Conditions

10-Day Weather Forecast

Almanac

Astronomy

Oct. 20, 2014 Rise Set
Actual Time 7:30 AM EDT 6:54 PM EDT
Civil Twilight 7:06 AM EDT 7:18 PM EDT
Nautical Twilight 6:39 AM EDT 7:45 PM EDT
Astronomical Twilight 6:12 AM EDT 8:12 PM EDT
Moon 4:34 AM EDT 5:02 PM EDT
Length of Visible Light 12h 11m
Length of Day
11h 24m
Waning Crescent, 11% of the Moon is Illuminated
Today
Waning Crescent
Oct 23
New
Oct 30
First Quarter
Nov 6
Full
Nov 14
Last Quarter

Today's Extremes

State Highs State Lows

Community

WunderPhotos

Upload Photos

1,763,351 photos uploaded!

WunderBlogs® & News

Nearby

Snow Depth

Station Depth Elevation
No new snow has been reported.

Earthquake Activity

City Distance Mag. Time & Date
No recent earthquake activity has been reported nearby.
Minimum magnitude displayed is 2.5.

Coastal Water Temperatures

Place Temperature
No Stations Reporting

Nearby Weather Stations